createdAt,value
2023-05-02T00:01:22.860Z,18.51
2023-05-02T00:03:50.592Z,18.62
2023-05-02T00:06:20.842Z,18.58
2023-05-02T00:08:49.575Z,18.54
2023-05-02T00:11:17.382Z,18.54
2023-05-02T00:13:44.654Z,18.44
2023-05-02T00:16:11.763Z,18.43
2023-05-02T00:18:39.184Z,18.45
2023-05-02T00:21:06.747Z,18.65
2023-05-02T00:23:35.822Z,18.73
2023-05-02T00:26:02.524Z,18.77
2023-05-02T00:28:29.842Z,18.72
2023-05-02T00:30:57.455Z,18.68
2023-05-02T00:33:25.732Z,18.68
2023-05-02T00:35:53.372Z,18.66
2023-05-02T00:38:21.193Z,18.64
2023-05-02T00:40:51.396Z,18.53
2023-05-02T00:43:18.990Z,18.52
2023-05-02T00:45:46.750Z,18.58
2023-05-02T00:48:14.166Z,18.70
2023-05-02T00:50:43.246Z,18.70
2023-05-02T00:53:11.213Z,18.54
2023-05-02T00:55:39.078Z,18.51
2023-05-02T00:58:11.651Z,18.47
2023-05-02T01:00:59.038Z,18.39
2023-05-02T01:03:37.683Z,18.44
2023-05-02T01:06:20.141Z,18.48
2023-05-02T01:08:56.399Z,18.49
2023-05-02T01:11:32.579Z,18.47
2023-05-02T01:14:04.223Z,18.62
2023-05-02T01:16:33.141Z,18.57
2023-05-02T01:19:03.748Z,18.44
2023-05-02T01:21:31.886Z,18.47
2023-05-02T01:24:07.377Z,18.49
2023-05-02T01:26:46.447Z,18.57
2023-05-02T01:29:17.890Z,18.46
2023-05-02T01:31:49.937Z,18.50
2023-05-02T01:34:20.520Z,18.47
2023-05-02T01:36:50.646Z,18.57
2023-05-02T01:39:22.063Z,18.57
2023-05-02T01:41:52.048Z,18.42
2023-05-02T01:44:22.929Z,18.51
2023-05-02T01:46:53.338Z,18.57
2023-05-02T01:49:23.517Z,18.51
2023-05-02T01:51:52.204Z,18.54
2023-05-02T01:54:23.350Z,18.46
2023-05-02T01:56:52.026Z,18.34
2023-05-02T01:59:24.187Z,18.22
2023-05-02T02:01:52.895Z,18.18
2023-05-02T02:04:22.108Z,18.33
2023-05-02T02:06:55.850Z,18.31
2023-05-02T02:09:23.200Z,18.35
2023-05-02T02:11:57.806Z,18.46
2023-05-02T02:14:33.820Z,18.48
2023-05-02T02:17:05.551Z,18.46
2023-05-02T02:19:33.904Z,18.33
2023-05-02T02:22:03.696Z,18.36
2023-05-02T02:24:33.011Z,18.29
2023-05-02T02:27:00.527Z,18.27
2023-05-02T02:29:29.985Z,18.37
2023-05-02T02:31:57.388Z,18.40
2023-05-02T02:34:24.631Z,18.51
2023-05-02T02:36:58.374Z,18.50
2023-05-02T02:39:39.965Z,18.40
2023-05-02T02:42:13.505Z,18.44
2023-05-02T02:44:52.786Z,18.54
2023-05-02T02:47:28.293Z,18.45
2023-05-02T02:50:12.129Z,18.46
2023-05-02T02:52:51.001Z,18.35
2023-05-02T02:55:29.181Z,18.32
2023-05-02T02:58:00.506Z,18.21
2023-05-02T03:00:29.852Z,18.22
2023-05-02T03:02:57.580Z,18.14
2023-05-02T03:05:25.855Z,18.10
2023-05-02T03:07:53.572Z,18.17
2023-05-02T03:10:23.212Z,18.09
2023-05-02T03:12:50.842Z,17.91
2023-05-02T03:15:50.865Z,17.76
2023-05-02T03:18:18.618Z,17.84
2023-05-02T03:20:46.377Z,17.79
2023-05-02T03:23:14.071Z,17.61
2023-05-02T03:25:41.563Z,17.77
2023-05-02T03:28:08.784Z,17.72
2023-05-02T03:30:38.114Z,17.69
2023-05-02T03:33:05.699Z,17.77
2023-05-02T03:35:33.031Z,17.68
2023-05-02T03:38:00.523Z,17.76
2023-05-02T03:40:28.368Z,17.91
2023-05-02T03:42:55.789Z,17.90
2023-05-02T03:45:23.167Z,17.77
2023-05-02T03:47:51.548Z,17.98
2023-05-02T03:50:19.591Z,17.84
2023-05-02T03:52:47.078Z,17.51
2023-05-02T03:55:14.621Z,17.68
2023-05-02T03:57:41.851Z,17.48
2023-05-02T04:00:10.882Z,17.41
2023-05-02T04:02:38.532Z,17.35
2023-05-02T04:05:08.717Z,17.67
2023-05-02T04:07:35.818Z,17.54
2023-05-02T04:10:03.520Z,17.53
2023-05-02T04:12:31.306Z,17.37
2023-05-02T04:14:58.679Z,17.30
2023-05-02T04:17:26.336Z,17.34
2023-05-02T04:19:53.714Z,17.19
2023-05-02T04:22:22.313Z,16.99
2023-05-02T04:24:49.845Z,17.04
2023-05-02T04:27:17.158Z,16.99
2023-05-02T04:29:44.556Z,17.13
2023-05-02T04:32:12.158Z,17.08
2023-05-02T04:34:40.425Z,17.37
2023-05-02T04:37:07.743Z,17.35
2023-05-02T04:39:36.796Z,17.41
2023-05-02T04:42:04.450Z,17.13
2023-05-02T04:44:31.964Z,17.02
2023-05-02T04:46:59.679Z,17.19
2023-05-02T04:49:27.296Z,17.34
2023-05-02T04:51:54.874Z,16.80
2023-05-02T04:54:22.276Z,16.69
2023-05-02T04:56:52.305Z,17.03
2023-05-02T04:59:19.322Z,17.09
2023-05-02T05:01:47.393Z,17.01
2023-05-02T05:04:14.996Z,16.95
2023-05-02T05:06:42.526Z,16.90
2023-05-02T05:09:09.976Z,16.49
2023-05-02T05:11:37.590Z,16.66
2023-05-02T05:14:06.559Z,16.56
2023-05-02T05:16:33.826Z,16.46
2023-05-02T05:19:01.246Z,16.60
2023-05-02T05:21:28.715Z,16.47
2023-05-02T05:23:55.817Z,16.81
2023-05-02T05:26:22.596Z,17.00
2023-05-02T05:28:49.921Z,16.96
2023-05-02T05:31:19.040Z,16.86
2023-05-02T05:33:46.444Z,17.06
2023-05-02T05:36:15.085Z,16.97
2023-05-02T05:38:42.266Z,16.89
2023-05-02T05:41:11.601Z,17.04
2023-05-02T05:43:38.811Z,16.86
2023-05-02T05:46:06.135Z,16.53
2023-05-02T05:48:35.561Z,16.60
2023-05-02T05:51:06.534Z,16.87
2023-05-02T05:53:34.008Z,17.18
2023-05-02T05:56:09.915Z,16.81
2023-05-02T05:58:37.720Z,16.25
2023-05-02T06:01:05.369Z,16.63
2023-05-02T06:03:32.814Z,16.87
2023-05-02T06:06:01.900Z,16.73
2023-05-02T06:08:29.549Z,16.70
2023-05-02T06:10:57.284Z,16.61
2023-05-02T06:13:25.222Z,16.55
2023-05-02T06:15:52.891Z,16.47
2023-05-02T06:18:20.221Z,16.54
2023-05-02T06:20:48.129Z,16.69
2023-05-02T06:23:18.264Z,16.79
2023-05-02T06:25:45.166Z,16.83
2023-05-02T06:28:12.330Z,16.76
2023-05-02T06:30:40.304Z,16.43
2023-05-02T06:33:09.612Z,16.62
2023-05-02T06:35:36.992Z,16.95
2023-05-02T06:38:04.554Z,17.29
2023-05-02T06:40:35.117Z,17.57
2023-05-02T06:43:02.308Z,17.76
2023-05-02T06:45:29.606Z,17.68
2023-05-02T06:47:56.931Z,17.84
2023-05-02T06:50:26.435Z,18.07
2023-05-02T06:52:54.299Z,18.08
2023-05-02T06:55:21.526Z,18.16
2023-05-02T06:57:51.262Z,18.01
2023-05-02T07:00:19.914Z,18.25
2023-05-02T07:02:48.402Z,18.16
2023-05-02T07:05:16.281Z,18.37
2023-05-02T07:07:44.111Z,18.17
2023-05-02T07:10:12.365Z,18.15
2023-05-02T07:12:39.684Z,18.15
2023-05-02T07:15:09.264Z,18.39
2023-05-02T07:17:36.453Z,18.18
2023-05-02T07:20:04.411Z,18.52
2023-05-02T07:22:32.149Z,18.63
2023-05-02T07:25:01.026Z,18.74
2023-05-02T07:27:28.532Z,18.68
2023-05-02T07:29:56.561Z,18.63
2023-05-02T07:32:26.118Z,18.43
2023-05-02T07:34:53.744Z,18.65
2023-05-02T07:37:21.145Z,18.62
2023-05-02T07:39:48.574Z,18.53
2023-05-02T07:42:16.069Z,18.84
2023-05-02T07:44:44.237Z,18.80
2023-05-02T07:47:11.809Z,18.60
2023-05-02T07:49:40.780Z,18.57
2023-05-02T07:52:07.939Z,18.85
2023-05-02T07:54:34.781Z,19.08
2023-05-02T07:57:01.508Z,19.19
2023-05-02T07:59:28.616Z,18.99
2023-05-02T08:01:56.128Z,19.10
2023-05-02T08:04:23.770Z,18.80
2023-05-02T08:06:51.995Z,18.71
2023-05-02T08:09:19.700Z,19.16
2023-05-02T08:11:48.164Z,19.08
2023-05-02T08:14:17.378Z,19.28
2023-05-02T08:16:46.766Z,18.70
2023-05-02T08:19:15.640Z,19.08
2023-05-02T08:21:43.757Z,18.87
2023-05-02T08:24:13.237Z,19.30
2023-05-02T08:26:40.891Z,19.20
2023-05-02T08:29:07.720Z,19.28
2023-05-02T08:31:35.840Z,19.40
2023-05-02T08:34:02.926Z,19.46
2023-05-02T08:36:30.719Z,19.83
2023-05-02T08:38:58.715Z,19.71
2023-05-02T08:41:30.048Z,19.64
2023-05-02T08:43:58.506Z,20.12
2023-05-02T08:46:26.733Z,20.53
2023-05-02T08:48:55.979Z,20.79
2023-05-02T08:51:24.843Z,20.70
2023-05-02T08:53:54.722Z,20.49
2023-05-02T08:56:21.621Z,20.15
2023-05-02T08:58:51.720Z,20.18
2023-05-02T09:01:22.936Z,20.57
2023-05-02T09:03:51.837Z,20.49
2023-05-02T09:06:21.805Z,20.75
2023-05-02T09:08:51.003Z,21.21
2023-05-02T09:11:19.627Z,21.39
2023-05-02T09:13:47.330Z,21.67
2023-05-02T09:16:18.164Z,21.86
2023-05-02T09:18:46.675Z,22.09
2023-05-02T09:21:19.010Z,22.18
2023-05-02T09:23:49.097Z,22.59
2023-05-02T09:26:20.445Z,22.17
2023-05-02T09:28:49.802Z,22.40
2023-05-02T09:31:43.785Z,22.74
2023-05-02T09:34:14.386Z,23.13
2023-05-02T09:36:43.467Z,22.52
2023-05-02T09:39:11.974Z,22.27
2023-05-02T09:41:42.775Z,22.61
2023-05-02T09:44:12.715Z,22.98
2023-05-02T09:46:46.440Z,23.10
2023-05-02T09:49:14.295Z,23.51
2023-05-02T09:51:41.901Z,24.23
2023-05-02T09:54:10.280Z,23.84
2023-05-02T09:56:53.594Z,23.74
2023-05-02T09:59:20.689Z,23.64
2023-05-02T10:01:56.182Z,23.42
2023-05-02T10:04:24.760Z,23.04
2023-05-02T10:06:55.490Z,22.67
2023-05-02T10:09:24.103Z,22.67
2023-05-02T10:11:53.793Z,22.75
2023-05-02T10:14:21.935Z,22.93
2023-05-02T10:16:58.646Z,23.06
2023-05-02T10:19:31.863Z,23.39
2023-05-02T10:22:00.197Z,23.45
2023-05-02T10:24:29.579Z,23.43
2023-05-02T10:26:56.710Z,23.48
2023-05-02T10:29:24.790Z,23.54
2023-05-02T10:31:54.225Z,23.99
2023-05-02T10:34:22.584Z,24.09
2023-05-02T10:36:50.155Z,24.02
2023-05-02T10:39:20.449Z,23.82
2023-05-02T10:41:48.076Z,23.76
2023-05-02T10:44:16.867Z,23.83
2023-05-02T10:46:45.053Z,23.95
2023-05-02T10:49:15.177Z,24.03
2023-05-02T10:51:45.225Z,23.60
2023-05-02T10:54:31.139Z,23.48
2023-05-02T10:57:07.740Z,23.85
2023-05-02T10:59:37.370Z,23.66
2023-05-02T11:02:07.136Z,23.31
2023-05-02T11:05:00.801Z,23.10
2023-05-02T11:07:28.081Z,23.80
2023-05-02T11:10:28.787Z,24.34
2023-05-02T11:12:57.858Z,24.74
2023-05-02T11:15:56.670Z,24.37
2023-05-02T11:18:23.865Z,24.49
2023-05-02T11:21:25.822Z,23.94
2023-05-02T11:23:52.693Z,23.42
2023-05-02T11:26:22.988Z,23.55
2023-05-02T11:28:52.065Z,23.86
2023-05-02T11:32:01.589Z,24.11
2023-05-02T11:34:29.116Z,24.03
2023-05-02T11:36:57.937Z,24.35
2023-05-02T11:39:24.611Z,24.38
2023-05-02T11:41:52.148Z,24.38
2023-05-02T11:44:18.907Z,24.41
2023-05-02T11:46:46.946Z,24.47
2023-05-02T11:49:15.263Z,24.44
2023-05-02T11:51:44.214Z,24.04
2023-05-02T11:54:21.301Z,24.52
2023-05-02T11:56:48.557Z,24.44
2023-05-02T11:59:15.625Z,24.47
2023-05-02T12:01:49.433Z,24.27
2023-05-02T12:04:16.946Z,24.37
2023-05-02T12:06:55.909Z,24.90
2023-05-02T12:09:25.359Z,25.16
2023-05-02T12:11:53.130Z,24.64
2023-05-02T12:14:28.073Z,24.59
2023-05-02T12:16:55.707Z,24.89
2023-05-02T12:19:23.756Z,24.85
2023-05-02T12:21:51.423Z,24.87
2023-05-02T12:24:19.067Z,25.23
2023-05-02T12:26:48.259Z,25.84
2023-05-02T12:29:16.541Z,25.91
2023-05-02T12:31:52.791Z,26.11
2023-05-02T12:34:33.468Z,25.96
2023-05-02T12:37:01.967Z,26.81
2023-05-02T12:39:36.371Z,26.91
2023-05-02T12:42:12.885Z,26.58
2023-05-02T12:44:45.010Z,25.33
2023-05-02T12:47:14.074Z,24.28
2023-05-02T12:49:52.475Z,23.82
2023-05-02T12:52:20.881Z,23.72
2023-05-02T12:54:49.008Z,23.63
2023-05-02T12:57:26.366Z,23.90
2023-05-02T12:59:54.142Z,24.20
2023-05-02T13:02:22.544Z,24.35
2023-05-02T13:04:49.633Z,24.63
2023-05-02T13:07:17.221Z,24.37
2023-05-02T13:09:44.600Z,24.62
2023-05-02T13:12:12.876Z,24.80
2023-05-02T13:14:42.905Z,24.99
2023-05-02T13:17:10.528Z,25.17
2023-05-02T13:19:40.561Z,25.30
2023-05-02T13:22:12.285Z,24.65
2023-05-02T13:24:39.660Z,24.64
2023-05-02T13:27:07.419Z,24.63
2023-05-02T13:29:34.481Z,24.57
2023-05-02T13:32:03.731Z,24.61
2023-05-02T13:34:31.652Z,24.61
2023-05-02T13:36:58.644Z,24.64
2023-05-02T13:39:26.671Z,24.79
2023-05-02T13:41:54.674Z,24.74
2023-05-02T13:44:23.003Z,24.37
2023-05-02T13:46:52.154Z,24.51
2023-05-02T13:49:20.740Z,24.62
2023-05-02T13:51:48.670Z,24.14
2023-05-02T13:54:16.583Z,24.14
2023-05-02T13:56:44.152Z,23.84
2023-05-02T13:59:11.885Z,23.96
2023-05-02T14:01:39.511Z,24.13
2023-05-02T14:04:07.015Z,24.43
2023-05-02T14:06:37.000Z,24.34
2023-05-02T14:09:08.663Z,24.60
2023-05-02T14:11:35.701Z,24.37
2023-05-02T14:14:03.467Z,24.14
2023-05-02T14:16:31.171Z,23.93
2023-05-02T14:18:59.138Z,23.95
2023-05-02T14:21:26.515Z,23.82
2023-05-02T14:23:55.595Z,23.89
2023-05-02T14:26:22.615Z,24.31
2023-05-02T14:28:49.540Z,24.56
2023-05-02T14:31:17.210Z,24.83
2023-05-02T14:33:45.140Z,25.06
2023-05-02T14:36:12.791Z,24.99
2023-05-02T14:38:40.372Z,24.79
2023-05-02T14:41:08.577Z,24.66
2023-05-02T14:43:35.878Z,24.65
2023-05-02T14:46:02.976Z,24.80
2023-05-02T14:48:30.662Z,24.67
2023-05-02T14:50:57.969Z,24.69
2023-05-02T14:53:25.389Z,24.52
2023-05-02T14:55:52.814Z,24.31
2023-05-02T14:58:22.480Z,24.52
2023-05-02T15:00:50.067Z,24.47
2023-05-02T15:03:17.955Z,24.53
2023-05-02T15:05:45.541Z,24.66
2023-05-02T15:08:12.365Z,24.87
2023-05-02T15:10:40.514Z,24.75
2023-05-02T15:13:09.196Z,24.93
2023-05-02T15:15:37.738Z,24.78
2023-05-02T15:18:05.688Z,24.83
2023-05-02T15:20:33.169Z,24.71
2023-05-02T15:23:01.619Z,24.98
2023-05-02T15:25:29.722Z,25.05
2023-05-02T15:27:57.148Z,24.53
2023-05-02T15:30:25.031Z,24.50
2023-05-02T15:32:54.212Z,24.17
2023-05-02T15:35:21.849Z,24.31
2023-05-02T15:37:48.950Z,24.18
2023-05-02T15:40:16.931Z,24.47
2023-05-02T15:42:44.362Z,24.88
2023-05-02T15:45:12.605Z,24.73
2023-05-02T15:47:41.055Z,24.58
2023-05-02T15:50:11.590Z,24.45
2023-05-02T15:52:39.495Z,24.67
2023-05-02T15:55:06.892Z,24.48
2023-05-02T15:57:34.504Z,24.27
2023-05-02T16:00:02.248Z,24.03
2023-05-02T16:02:29.763Z,23.98
2023-05-02T16:04:56.615Z,24.39
2023-05-02T16:07:25.987Z,24.26
2023-05-02T16:09:53.348Z,24.05
2023-05-02T16:12:20.799Z,24.15
2023-05-02T16:14:48.503Z,24.13
2023-05-02T16:17:15.768Z,24.43
2023-05-02T16:19:43.328Z,24.26
2023-05-02T16:22:10.726Z,23.67
2023-05-02T16:24:39.905Z,23.55
2023-05-02T16:27:07.850Z,23.66
2023-05-02T16:29:35.368Z,23.69
2023-05-02T16:32:02.909Z,23.85
2023-05-02T16:34:32.032Z,23.47
2023-05-02T16:37:00.325Z,22.62
2023-05-02T16:39:29.115Z,22.93
2023-05-02T16:41:58.202Z,23.29
2023-05-02T16:44:25.424Z,23.03
2023-05-02T16:46:52.896Z,22.95
2023-05-02T16:49:20.237Z,23.35
2023-05-02T16:51:47.251Z,23.61
2023-05-02T16:54:14.657Z,23.52
2023-05-02T16:56:42.703Z,23.05
2023-05-02T16:59:15.040Z,23.28
2023-05-02T17:01:42.178Z,23.27
2023-05-02T17:04:09.212Z,23.41
2023-05-02T17:06:36.857Z,23.64
2023-05-02T17:09:04.135Z,23.12
2023-05-02T17:11:31.250Z,22.89
2023-05-02T17:13:58.409Z,23.06
2023-05-02T17:16:27.246Z,23.05
2023-05-02T17:18:55.554Z,23.19
2023-05-02T17:21:23.374Z,23.25
2023-05-02T17:23:50.936Z,23.17
2023-05-02T17:26:18.270Z,23.15
2023-05-02T17:28:46.005Z,23.19
2023-05-02T17:31:13.750Z,22.67
2023-05-02T17:33:42.875Z,22.48
2023-05-02T17:36:14.565Z,22.50
2023-05-02T17:38:41.891Z,22.48
2023-05-02T17:41:08.898Z,22.64
2023-05-02T17:43:36.927Z,22.73
2023-05-02T17:46:07.341Z,22.81
2023-05-02T17:48:34.318Z,22.69
2023-05-02T17:51:03.220Z,22.47
2023-05-02T17:53:30.450Z,22.47
2023-05-02T17:55:57.579Z,22.61
2023-05-02T17:58:24.268Z,22.47
2023-05-02T18:00:51.215Z,22.57
2023-05-02T18:03:18.481Z,22.63
2023-05-02T18:05:49.228Z,21.65
2023-05-02T18:08:22.510Z,21.77
2023-05-02T18:10:50.003Z,21.58
2023-05-02T18:13:17.330Z,20.58
2023-05-02T18:15:44.113Z,20.60
2023-05-02T18:18:11.193Z,20.84
2023-05-02T18:20:39.111Z,20.78
2023-05-02T18:23:06.219Z,20.74
2023-05-02T18:25:35.588Z,20.68
2023-05-02T18:28:02.336Z,20.47
2023-05-02T18:30:29.344Z,20.35
2023-05-02T18:32:56.860Z,20.46
2023-05-02T18:35:24.167Z,20.34
2023-05-02T18:37:54.903Z,20.46
2023-05-02T18:40:22.493Z,20.28
2023-05-02T18:42:51.440Z,19.92
2023-05-02T18:45:19.130Z,19.89
2023-05-02T18:47:46.463Z,19.86
2023-05-02T18:50:13.978Z,20.93
2023-05-02T18:52:41.553Z,21.23
2023-05-02T18:55:08.953Z,21.37
2023-05-02T18:57:36.499Z,21.55
2023-05-02T19:00:07.018Z,21.40
2023-05-02T19:02:34.895Z,21.13
2023-05-02T19:05:05.801Z,20.98
2023-05-02T19:07:34.638Z,21.01
2023-05-02T19:10:02.427Z,20.88
2023-05-02T19:12:31.331Z,20.92
2023-05-02T19:14:58.855Z,20.72
2023-05-02T19:17:27.968Z,20.52
2023-05-02T19:19:58.152Z,20.89
2023-05-02T19:22:25.604Z,20.90
2023-05-02T19:24:53.434Z,20.66
2023-05-02T19:27:21.125Z,20.29
2023-05-02T19:29:48.889Z,20.12
2023-05-02T19:32:16.260Z,20.44
2023-05-02T19:34:45.397Z,20.13
2023-05-02T19:37:12.852Z,20.05
2023-05-02T19:39:40.082Z,20.09
2023-05-02T19:42:07.448Z,19.69
2023-05-02T19:44:34.145Z,19.94
2023-05-02T19:47:01.269Z,20.01
2023-05-02T19:49:28.730Z,19.80
2023-05-02T19:51:57.388Z,19.98
2023-05-02T19:54:24.533Z,19.78
2023-05-02T19:56:52.362Z,20.00
2023-05-02T19:59:21.013Z,19.55
2023-05-02T20:01:48.217Z,19.70
2023-05-02T20:04:15.953Z,19.81
2023-05-02T20:06:43.169Z,19.70
2023-05-02T20:09:12.291Z,19.64
2023-05-02T20:11:39.983Z,19.42
2023-05-02T20:14:07.597Z,19.61
2023-05-02T20:16:35.378Z,19.59
2023-05-02T20:19:03.338Z,19.57
2023-05-02T20:21:30.886Z,19.58
2023-05-02T20:23:58.404Z,19.55
2023-05-02T20:26:27.710Z,19.35
2023-05-02T20:28:55.075Z,19.68
2023-05-02T20:31:22.623Z,19.43
2023-05-02T20:33:50.330Z,19.44
2023-05-02T20:36:17.635Z,19.47
2023-05-02T20:38:47.415Z,18.92
2023-05-02T20:41:14.782Z,18.99
2023-05-02T20:43:43.538Z,18.77
2023-05-02T20:46:11.288Z,18.72
2023-05-02T20:48:39.106Z,18.85
2023-05-02T20:51:06.334Z,18.83
2023-05-02T20:53:34.802Z,18.82
2023-05-02T20:56:02.266Z,18.68
2023-05-02T20:58:29.452Z,18.62
2023-05-02T21:00:58.859Z,18.55
2023-05-02T21:03:28.121Z,18.37
2023-05-02T21:05:56.832Z,18.47
2023-05-02T21:08:24.324Z,18.79
2023-05-02T21:10:53.616Z,18.72
2023-05-02T21:13:21.058Z,18.52
2023-05-02T21:15:48.865Z,18.38
2023-05-02T21:18:18.705Z,18.48
2023-05-02T21:20:48.982Z,18.37
2023-05-02T21:23:15.952Z,18.44
2023-05-02T21:25:43.666Z,18.69
2023-05-02T21:28:11.377Z,18.64
2023-05-02T21:30:39.436Z,18.47
2023-05-02T21:33:07.298Z,18.36
2023-05-02T21:35:36.130Z,18.10
2023-05-02T21:38:03.763Z,18.16
2023-05-02T21:40:31.245Z,18.31
2023-05-02T21:42:58.651Z,18.14
2023-05-02T21:45:25.926Z,18.15
2023-05-02T21:47:53.456Z,18.60
2023-05-02T21:50:21.193Z,18.28
2023-05-02T21:52:49.982Z,18.20
2023-05-02T21:55:17.335Z,18.44
2023-05-02T21:57:45.000Z,18.12
2023-05-02T22:00:14.061Z,18.38
2023-05-02T22:02:41.491Z,18.36
2023-05-02T22:05:09.367Z,18.33
2023-05-02T22:07:36.807Z,18.22
2023-05-02T22:10:06.815Z,18.16
2023-05-02T22:12:34.285Z,18.37
2023-05-02T22:15:08.836Z,17.85
2023-05-02T22:17:35.906Z,18.28
2023-05-02T22:20:03.921Z,18.31
2023-05-02T22:22:30.894Z,18.15
2023-05-02T22:24:58.196Z,18.25
2023-05-02T22:27:27.432Z,18.28
2023-05-02T22:29:55.227Z,17.59
2023-05-02T22:32:23.100Z,17.55
2023-05-02T22:34:50.431Z,17.88
2023-05-02T22:37:17.852Z,18.13
2023-05-02T22:39:45.350Z,18.24
2023-05-02T22:42:12.591Z,17.83
2023-05-02T22:44:53.258Z,18.03
2023-05-02T22:47:22.017Z,17.91
2023-05-02T22:49:49.147Z,17.78
2023-05-02T22:52:16.574Z,18.31
2023-05-02T22:54:45.095Z,18.24
2023-05-02T22:57:12.509Z,18.22
2023-05-02T22:59:41.411Z,18.39
2023-05-02T23:02:10.392Z,18.19
2023-05-02T23:04:37.879Z,18.24
2023-05-02T23:07:05.188Z,18.35
2023-05-02T23:09:32.830Z,17.98
2023-05-02T23:12:00.073Z,17.97
2023-05-02T23:14:27.894Z,17.95
2023-05-02T23:16:56.924Z,17.83
2023-05-02T23:19:24.679Z,18.04
2023-05-02T23:21:52.740Z,18.06
2023-05-02T23:24:19.838Z,17.99
2023-05-02T23:26:47.183Z,18.11
2023-05-02T23:29:14.670Z,18.22
2023-05-02T23:31:42.755Z,18.33
2023-05-02T23:34:12.721Z,18.16
2023-05-02T23:36:39.556Z,18.25
2023-05-02T23:39:06.778Z,18.14
2023-05-02T23:41:34.449Z,18.27
2023-05-02T23:44:01.782Z,18.04
2023-05-02T23:46:28.978Z,18.36
2023-05-02T23:48:56.156Z,18.35
2023-05-02T23:51:25.863Z,18.20
2023-05-02T23:53:52.648Z,18.37
2023-05-02T23:56:19.886Z,18.22
2023-05-02T23:58:48.432Z,18.17
